createdAt,value
2019-02-28T00:01:16.169Z,101152.11
2019-02-28T00:03:49.534Z,101153.39
2019-02-28T00:06:22.994Z,101152.11
2019-02-28T00:08:56.320Z,101144.22
2019-02-28T00:11:29.627Z,101144.98
2019-02-28T00:14:03.008Z,101152.20
2019-02-28T00:16:36.427Z,101153.05
2019-02-28T00:19:09.671Z,101146.63
2019-02-28T00:21:43.057Z,101149.28
2019-02-28T00:24:16.347Z,101150.12
2019-02-28T00:26:49.719Z,101140.56
2019-02-28T00:29:23.025Z,101139.84
2019-02-28T00:31:56.302Z,101131.72
2019-02-28T00:34:29.693Z,101129.91
2019-02-28T00:37:02.918Z,101131.45
2019-02-28T00:39:36.227Z,101125.19
2019-02-28T00:42:09.597Z,101118.58
2019-02-28T00:44:42.955Z,101118.11
2019-02-28T00:47:17.085Z,101111.19
2019-02-28T00:49:50.382Z,101108.09
2019-02-28T00:52:23.690Z,101113.80
2019-02-28T00:54:57.009Z,101107.65
2019-02-28T00:57:30.307Z,101098.72
2019-02-28T01:00:06.261Z,101100.41
2019-02-28T01:02:39.646Z,101099.09
2019-02-28T01:05:12.964Z,101097.82
2019-02-28T01:07:48.160Z,101096.01
2019-02-28T01:10:21.366Z,101094.41
2019-02-28T01:12:54.692Z,101091.00
2019-02-28T01:15:27.966Z,101097.92
2019-02-28T01:18:02.026Z,101093.36
2019-02-28T01:20:35.346Z,101093.12
2019-02-28T01:23:08.717Z,101091.77
2019-02-28T01:25:42.013Z,101088.44
2019-02-28T01:28:15.321Z,101081.19
2019-02-28T01:30:48.616Z,101088.19
2019-02-28T01:33:24.856Z,101071.59
2019-02-28T01:35:56.950Z,101081.10
2019-02-28T01:38:30.238Z,101071.12
2019-02-28T01:41:03.520Z,101067.81
2019-02-28T01:43:36.807Z,101067.05
2019-02-28T01:46:10.121Z,101060.89
2019-02-28T01:48:43.403Z,101061.23
2019-02-28T01:51:16.749Z,101062.46
2019-02-28T01:53:50.475Z,101059.87
2019-02-28T01:56:25.073Z,101050.88
2019-02-28T01:58:58.358Z,101052.56
2019-02-28T02:01:31.749Z,101048.38
2019-02-28T02:04:05.007Z,101044.90
2019-02-28T02:06:38.333Z,101048.66
2019-02-28T02:09:11.891Z,101044.38
2019-02-28T02:11:45.225Z,101046.75
2019-02-28T02:14:18.551Z,101037.62
2019-02-28T02:16:51.861Z,101039.34
2019-02-28T02:19:25.161Z,101037.97
2019-02-28T02:21:58.458Z,101034.95
2019-02-28T02:24:31.776Z,101030.28
2019-02-28T02:27:05.117Z,101026.20
2019-02-28T02:29:38.463Z,101020.39
2019-02-28T02:32:12.213Z,101020.58
2019-02-28T02:34:45.522Z,101018.26
2019-02-28T02:37:18.817Z,101020.72
2019-02-28T02:39:52.155Z,101012.00
2019-02-28T02:42:25.448Z,101010.19
2019-02-28T02:44:58.830Z,101006.12
2019-02-28T02:47:32.618Z,101002.67
2019-02-28T02:50:09.171Z,101000.39
2019-02-28T02:52:42.609Z,100994.53
2019-02-28T02:55:15.908Z,100992.05
2019-02-28T02:57:51.783Z,100992.30
2019-02-28T03:00:24.304Z,100991.35
2019-02-28T03:02:59.233Z,100983.88
2019-02-28T03:05:35.953Z,100991.50
2019-02-28T03:08:09.197Z,100987.06
2019-02-28T03:10:42.505Z,100979.91
2019-02-28T03:13:15.867Z,100975.63
2019-02-28T03:15:49.172Z,100968.39
2019-02-28T03:18:22.476Z,100968.41
2019-02-28T03:20:55.780Z,100966.84
2019-02-28T03:23:29.099Z,100967.31
2019-02-28T03:26:06.979Z,100968.69
2019-02-28T03:28:37.411Z,100966.92
2019-02-28T03:31:14.108Z,100966.09
2019-02-28T03:33:45.731Z,100963.23
2019-02-28T03:36:19.044Z,100955.48
2019-02-28T03:38:52.373Z,100959.70
2019-02-28T03:41:25.724Z,100957.42
2019-02-28T03:43:59.011Z,100953.92
2019-02-28T03:46:32.327Z,100951.43
2019-02-28T03:49:11.160Z,100955.94
2019-02-28T03:51:40.698Z,100958.09
2019-02-28T03:54:13.950Z,100952.70
2019-02-28T03:56:51.656Z,100951.09
2019-02-28T03:59:22.287Z,100947.05
2019-02-28T04:01:55.622Z,100946.00
2019-02-28T04:04:28.927Z,100942.13
2019-02-28T04:07:02.240Z,100945.52
2019-02-28T04:09:35.542Z,100948.35
2019-02-28T04:12:09.142Z,100943.75
2019-02-28T04:14:42.526Z,100947.28
2019-02-28T04:17:15.844Z,100949.37
2019-02-28T04:19:49.142Z,100952.20
2019-02-28T04:22:23.107Z,100957.60
2019-02-28T04:24:57.296Z,100957.86
2019-02-28T04:27:30.613Z,100964.22
2019-02-28T04:30:08.011Z,100959.23
2019-02-28T04:32:40.209Z,100962.07
2019-02-28T04:35:13.576Z,100953.20
2019-02-28T04:37:47.333Z,100958.95
2019-02-28T04:40:20.770Z,100960.89
2019-02-28T04:42:54.121Z,100952.28
2019-02-28T04:45:27.414Z,100952.59
2019-02-28T04:48:00.748Z,100958.05
2019-02-28T04:50:34.047Z,100957.14
2019-02-28T04:53:07.380Z,100962.05
2019-02-28T04:55:40.685Z,100964.65
2019-02-28T04:58:14.015Z,100962.63
2019-02-28T05:00:47.294Z,100961.64
2019-02-28T05:03:20.601Z,100956.85
2019-02-28T05:05:53.895Z,100951.97
2019-02-28T05:08:27.228Z,100953.19
2019-02-28T05:11:00.534Z,100953.69
2019-02-28T05:13:33.843Z,100942.09
2019-02-28T05:16:09.405Z,100943.80
2019-02-28T05:18:42.264Z,100944.80
2019-02-28T05:21:16.549Z,100942.05
2019-02-28T05:23:50.649Z,100941.50
2019-02-28T05:26:26.225Z,100942.42
2019-02-28T05:28:59.025Z,100938.05
2019-02-28T05:31:32.378Z,100939.03
2019-02-28T05:34:05.737Z,100942.78
2019-02-28T05:36:39.044Z,100947.66
2019-02-28T05:39:12.394Z,100951.31
2019-02-28T05:41:49.167Z,100958.18
2019-02-28T05:44:21.423Z,100958.89
2019-02-28T05:46:57.590Z,100961.56
2019-02-28T05:49:29.855Z,100971.43
2019-02-28T05:52:03.228Z,100973.12
2019-02-28T05:54:36.522Z,100981.61
2019-02-28T05:57:09.850Z,100978.72
2019-02-28T05:59:43.157Z,100977.81
2019-02-28T06:02:18.930Z,100982.25
2019-02-28T06:04:51.508Z,100988.41
2019-02-28T06:07:25.988Z,100991.77
2019-02-28T06:09:59.881Z,100995.28
2019-02-28T06:12:33.174Z,100998.27
2019-02-28T06:15:09.846Z,100985.38
2019-02-28T06:17:43.212Z,100994.06
2019-02-28T06:20:17.960Z,100983.05
2019-02-28T06:22:51.360Z,100986.53
2019-02-28T06:25:25.693Z,100980.92
2019-02-28T06:27:59.053Z,100985.95
2019-02-28T06:30:32.397Z,100996.33
2019-02-28T06:33:05.703Z,100997.88
2019-02-28T06:35:39.305Z,100990.63
2019-02-28T06:38:12.556Z,100983.64
2019-02-28T06:40:45.870Z,100984.50
2019-02-28T06:43:19.591Z,100983.59
2019-02-28T06:45:53.066Z,100993.22
2019-02-28T06:48:26.737Z,100995.48
2019-02-28T06:51:00.301Z,100997.77
2019-02-28T06:53:36.305Z,100996.99
2019-02-28T06:56:09.656Z,100995.85
2019-02-28T06:58:42.961Z,100993.23
2019-02-28T07:01:19.255Z,100994.92
2019-02-28T07:03:53.690Z,101002.81
2019-02-28T07:06:26.575Z,101010.05
2019-02-28T07:09:02.375Z,101010.08
2019-02-28T07:11:34.864Z,101009.33
2019-02-28T07:14:12.929Z,101008.21
2019-02-28T07:16:43.311Z,101017.06
2019-02-28T07:19:16.973Z,101014.13
2019-02-28T07:21:50.302Z,101024.00
2019-02-28T07:24:23.682Z,101023.78
2019-02-28T07:26:57.009Z,101019.49
2019-02-28T07:29:32.061Z,101024.89
2019-02-28T07:32:05.656Z,101024.95
2019-02-28T07:34:38.994Z,101027.16
2019-02-28T07:37:12.448Z,101017.03
2019-02-28T07:39:45.797Z,101014.00
2019-02-28T07:42:19.169Z,101012.59
2019-02-28T07:44:53.677Z,101020.45
2019-02-28T07:47:27.547Z,101017.67
2019-02-28T07:50:00.999Z,101006.27
2019-02-28T07:52:34.502Z,101004.14
2019-02-28T07:55:11.106Z,100994.64
2019-02-28T07:57:53.301Z,100998.16
2019-02-28T08:00:26.315Z,100991.69
2019-02-28T08:02:59.689Z,100985.63
2019-02-28T08:05:33.075Z,100980.88
2019-02-28T08:08:07.794Z,100986.16
2019-02-28T08:10:41.063Z,100982.66
2019-02-28T08:13:14.336Z,100992.70
2019-02-28T08:15:47.711Z,100992.30
2019-02-28T08:18:21.832Z,100994.89
2019-02-28T08:20:55.180Z,100995.34
2019-02-28T08:23:29.947Z,100989.20
2019-02-28T08:26:03.538Z,100987.45
2019-02-28T08:28:37.093Z,100992.20
2019-02-28T08:31:10.964Z,100983.93
2019-02-28T08:33:44.256Z,100984.73
2019-02-28T08:36:17.651Z,100988.63
2019-02-28T08:38:51.240Z,100988.12
2019-02-28T08:41:25.726Z,100978.47
2019-02-28T08:43:59.833Z,100975.31
2019-02-28T08:46:33.237Z,100984.04
2019-02-28T08:49:07.404Z,100971.75
2019-02-28T08:51:40.740Z,100983.41
2019-02-28T08:54:14.062Z,100982.56
2019-02-28T08:56:49.526Z,100981.58
2019-02-28T08:59:22.948Z,100983.30
2019-02-28T09:01:56.295Z,100979.25
2019-02-28T09:04:29.675Z,100989.08
2019-02-28T09:07:02.946Z,100972.47
2019-02-28T09:09:36.280Z,100976.62
2019-02-28T09:12:09.701Z,100981.75
2019-02-28T09:14:43.159Z,100982.05
2019-02-28T09:17:18.551Z,100973.04
2019-02-28T09:19:51.709Z,100989.30
2019-02-28T09:22:27.339Z,100981.37
2019-02-28T09:25:00.283Z,100969.23
2019-02-28T09:27:38.452Z,100964.09
2019-02-28T09:30:17.621Z,100957.08
2019-02-28T09:32:50.955Z,100954.36
2019-02-28T09:35:24.362Z,100953.66
2019-02-28T09:37:57.754Z,100970.19
2019-02-28T09:40:31.259Z,100973.93
2019-02-28T09:43:04.887Z,100974.20
2019-02-28T09:45:40.021Z,100978.31
2019-02-28T09:48:13.464Z,100962.65
2019-02-28T09:50:46.846Z,100960.28
2019-02-28T09:53:20.277Z,100958.50
2019-02-28T09:55:53.840Z,100955.93
2019-02-28T09:58:29.321Z,100961.55
2019-02-28T10:01:02.395Z,100943.44
2019-02-28T10:03:36.066Z,100944.03
2019-02-28T10:06:09.570Z,100946.14
2019-02-28T10:08:43.088Z,100934.88
2019-02-28T10:11:16.662Z,100936.34
2019-02-28T10:13:53.152Z,100928.75
2019-02-28T10:16:25.380Z,100925.82
2019-02-28T10:18:58.836Z,100937.94
2019-02-28T10:21:33.281Z,100935.16
2019-02-28T10:24:07.289Z,100926.14
2019-02-28T10:26:40.673Z,100935.33
2019-02-28T10:29:14.076Z,100931.64
2019-02-28T10:31:47.436Z,100935.91
2019-02-28T10:34:23.512Z,100927.01
2019-02-28T10:36:55.849Z,100911.52
2019-02-28T10:39:29.368Z,100898.88
2019-02-28T10:42:05.225Z,100903.89
2019-02-28T10:44:37.959Z,100911.84
2019-02-28T10:47:11.271Z,100909.19
2019-02-28T10:49:44.634Z,100894.36
2019-02-28T10:52:18.109Z,100890.83
2019-02-28T10:54:51.385Z,100891.47
2019-02-28T10:57:24.779Z,100895.30
2019-02-28T10:59:59.162Z,100895.30
2019-02-28T11:02:32.593Z,100884.45
2019-02-28T11:05:07.955Z,100880.57
2019-02-28T11:07:41.463Z,100875.00
2019-02-28T11:10:15.777Z,100867.41
2019-02-28T11:12:49.178Z,100871.17
2019-02-28T11:15:24.590Z,100867.60
2019-02-28T11:17:57.963Z,100867.60
2019-02-28T11:20:33.173Z,100860.84
2019-02-28T11:23:07.745Z,100856.91
2019-02-28T11:25:41.350Z,100862.75
2019-02-28T11:28:15.034Z,100856.09
2019-02-28T11:30:54.353Z,100858.81
2019-02-28T11:33:27.686Z,100858.28
2019-02-28T11:36:01.255Z,100851.11
2019-02-28T11:38:34.694Z,100846.87
2019-02-28T11:41:08.059Z,100842.09
2019-02-28T11:43:41.491Z,100831.37
2019-02-28T11:46:15.169Z,100832.25
2019-02-28T11:48:51.020Z,100820.49
2019-02-28T11:51:23.517Z,100823.52
2019-02-28T11:53:56.941Z,100819.02
2019-02-28T11:56:30.239Z,100806.14
2019-02-28T11:59:03.670Z,100813.99
2019-02-28T12:01:37.062Z,100803.53
2019-02-28T12:04:10.562Z,100792.95
2019-02-28T12:06:43.853Z,100794.25
2019-02-28T12:09:19.237Z,100791.53
2019-02-28T12:11:52.737Z,100796.01
2019-02-28T12:14:26.413Z,100787.06
2019-02-28T12:17:01.137Z,100786.31
2019-02-28T12:19:34.523Z,100772.22
2019-02-28T12:22:09.228Z,100767.84
2019-02-28T12:24:43.055Z,100758.35
2019-02-28T12:27:18.270Z,100761.02
2019-02-28T12:29:51.648Z,100754.21
2019-02-28T12:32:24.955Z,100745.92
2019-02-28T12:35:01.485Z,100746.44
2019-02-28T12:37:34.424Z,100742.73
2019-02-28T12:40:11.200Z,100736.48
2019-02-28T12:42:44.420Z,100725.73
2019-02-28T12:45:24.510Z,100731.13
2019-02-28T12:47:58.703Z,100735.14
2019-02-28T12:50:32.088Z,100738.54
2019-02-28T12:53:05.577Z,100731.15
2019-02-28T12:55:40.132Z,100725.19
2019-02-28T12:58:13.668Z,100733.41
2019-02-28T13:00:47.213Z,100722.33
2019-02-28T13:03:21.204Z,100723.23
2019-02-28T13:05:54.809Z,100713.68
2019-02-28T13:08:28.275Z,100721.08
2019-02-28T13:11:04.521Z,100717.75
2019-02-28T13:13:37.034Z,100716.55
2019-02-28T13:16:10.432Z,100710.39
2019-02-28T13:18:44.454Z,100708.52
2019-02-28T13:21:17.798Z,100709.36
2019-02-28T13:23:51.154Z,100690.77
2019-02-28T13:26:24.541Z,100693.45
2019-02-28T13:28:58.159Z,100698.09
2019-02-28T13:31:31.621Z,100705.82
2019-02-28T13:34:04.997Z,100694.21
2019-02-28T13:36:38.423Z,100695.76
2019-02-28T13:39:11.902Z,100704.91
2019-02-28T13:41:48.228Z,100696.83
2019-02-28T13:44:21.680Z,100683.60
2019-02-28T13:46:55.041Z,100681.66
2019-02-28T13:49:28.405Z,100680.43
2019-02-28T13:52:01.719Z,100669.62
2019-02-28T13:54:38.149Z,100678.47
2019-02-28T13:57:10.285Z,100679.73
2019-02-28T13:59:43.713Z,100679.53
2019-02-28T14:02:17.017Z,100667.97
2019-02-28T14:04:50.350Z,100666.28
2019-02-28T14:07:25.924Z,100669.34
2019-02-28T14:09:58.873Z,100671.09
2019-02-28T14:12:32.389Z,100661.32
2019-02-28T14:15:08.899Z,100673.95
2019-02-28T14:17:42.201Z,100661.95
2019-02-28T14:20:15.528Z,100667.28
2019-02-28T14:22:48.876Z,100655.48
2019-02-28T14:25:23.686Z,100657.98
2019-02-28T14:28:00.309Z,100649.05
2019-02-28T14:30:33.340Z,100656.18
2019-02-28T14:33:06.870Z,100654.77
2019-02-28T14:35:40.354Z,100650.79
2019-02-28T14:38:13.682Z,100650.98
2019-02-28T14:40:49.553Z,100650.44
2019-02-28T14:43:22.193Z,100657.30
2019-02-28T14:45:55.592Z,100662.20
2019-02-28T14:48:28.889Z,100651.44
2019-02-28T14:51:02.452Z,100642.66
2019-02-28T14:53:35.691Z,100643.58
2019-02-28T14:56:09.310Z,100656.64
2019-02-28T14:58:42.619Z,100653.74
2019-02-28T15:01:18.023Z,100661.96
2019-02-28T15:03:51.274Z,100672.26
2019-02-28T15:06:26.430Z,100670.48
2019-02-28T15:08:59.815Z,100668.00
2019-02-28T15:11:33.312Z,100662.27
2019-02-28T15:14:08.773Z,100677.01
2019-02-28T15:16:41.819Z,100676.25
2019-02-28T15:19:15.211Z,100665.31
2019-02-28T15:21:48.529Z,100664.27
2019-02-28T15:24:21.914Z,100668.38
2019-02-28T15:26:55.412Z,100673.41
2019-02-28T15:29:28.795Z,100682.98
2019-02-28T15:32:02.135Z,100680.66
2019-02-28T15:34:37.469Z,100680.95
2019-02-28T15:37:10.639Z,100677.58
2019-02-28T15:39:44.029Z,100678.61
2019-02-28T15:42:17.507Z,100673.30
2019-02-28T15:44:50.877Z,100674.36
2019-02-28T15:47:24.587Z,100676.20
2019-02-28T15:49:57.835Z,100675.95
2019-02-28T15:52:31.256Z,100674.73
2019-02-28T15:55:05.512Z,100680.58
2019-02-28T15:57:38.931Z,100673.08
2019-02-28T16:00:29.701Z,100678.46
2019-02-28T16:03:03.165Z,100676.34
2019-02-28T16:05:42.425Z,100683.34
2019-02-28T16:08:11.856Z,100686.36
2019-02-28T16:10:52.853Z,100698.70
2019-02-28T16:13:22.670Z,100702.30
2019-02-28T16:15:55.295Z,100705.84
2019-02-28T16:18:28.783Z,100711.95
2019-02-28T16:21:03.659Z,100723.40
2019-02-28T16:23:37.158Z,100724.81
2019-02-28T16:26:10.565Z,100737.14
2019-02-28T16:28:43.962Z,100746.39
2019-02-28T16:31:18.742Z,100746.39
2019-02-28T16:33:52.300Z,100769.66
2019-02-28T16:36:26.568Z,100793.17
2019-02-28T16:39:00.139Z,100795.39
2019-02-28T16:41:33.680Z,100802.95
2019-02-28T16:44:08.592Z,100808.19
2019-02-28T16:46:41.959Z,100830.55
2019-02-28T16:49:15.358Z,100814.79
2019-02-28T16:51:48.770Z,100834.20
2019-02-28T16:54:22.750Z,100834.91
2019-02-28T16:56:56.678Z,100846.98
2019-02-28T16:59:31.733Z,100858.67
2019-02-28T17:02:05.138Z,100865.20
2019-02-28T17:04:38.490Z,100853.04
2019-02-28T17:07:11.782Z,100867.72
2019-02-28T17:09:46.700Z,100868.66
2019-02-28T17:12:27.262Z,100876.31
2019-02-28T17:14:59.612Z,100877.28
2019-02-28T17:17:34.561Z,100881.47
2019-02-28T17:20:07.948Z,100883.08
2019-02-28T17:22:41.246Z,100877.90
2019-02-28T17:25:14.568Z,100888.67
2019-02-28T17:34:15.630Z,100873.43
2019-02-28T17:36:49.051Z,100875.19
2019-02-28T17:39:22.428Z,100876.59
2019-02-28T17:41:55.892Z,100873.12
2019-02-28T17:44:33.981Z,100882.47
2019-02-28T17:47:10.414Z,100878.52
2019-02-28T17:50:15.817Z,100882.75
2019-02-28T17:53:21.208Z,100884.27
2019-02-28T17:56:12.804Z,100884.19
2019-02-28T17:59:21.219Z,100887.61
2019-02-28T18:02:09.313Z,100885.45
2019-02-28T18:05:11.599Z,100886.82
2019-02-28T18:08:00.524Z,100894.72
2019-02-28T18:10:40.938Z,100896.25
2019-02-28T18:13:26.419Z,100899.40
2019-02-28T18:16:24.216Z,100907.30
2019-02-28T18:19:33.115Z,100911.57
2019-02-28T18:22:16.078Z,100905.55
2019-02-28T18:25:07.614Z,100914.60
2019-02-28T18:27:58.926Z,100912.97
2019-02-28T18:30:38.333Z,100907.81
2019-02-28T18:33:11.619Z,100907.86
2019-02-28T18:35:44.994Z,100907.46
2019-02-28T18:38:18.486Z,100910.53
2019-02-28T18:40:51.830Z,100910.13
2019-02-28T18:43:27.005Z,100900.12
2019-02-28T18:46:00.140Z,100904.91
2019-02-28T18:48:33.442Z,100898.80
2019-02-28T18:51:06.756Z,100890.91
2019-02-28T18:53:40.037Z,100897.02
2019-02-28T18:56:13.365Z,100897.89
2019-02-28T18:58:46.638Z,100900.08
2019-02-28T19:01:20.032Z,100893.06
2019-02-28T19:03:53.336Z,100894.86
2019-02-28T19:06:26.645Z,100895.33
2019-02-28T19:08:59.999Z,100888.31
2019-02-28T19:11:33.312Z,100892.27
2019-02-28T19:14:06.620Z,100899.84
2019-02-28T19:16:39.958Z,100892.86
2019-02-28T19:19:13.306Z,100892.82
2019-02-28T19:24:48.237Z,100885.04
2019-02-28T19:27:21.544Z,100880.66
2019-02-28T19:29:55.070Z,100885.95
2019-02-28T19:32:28.386Z,100885.92
2019-02-28T19:35:01.665Z,100884.16
2019-02-28T19:37:35.005Z,100885.48
2019-02-28T19:40:10.712Z,100881.89
2019-02-28T19:42:44.035Z,100880.66
2019-02-28T19:45:20.505Z,100875.50
2019-02-28T19:47:53.829Z,100876.82
2019-02-28T19:50:27.123Z,100871.08
2019-02-28T19:53:00.508Z,100863.19
2019-02-28T19:55:33.871Z,100864.10
2019-02-28T19:58:07.213Z,100859.72
2019-02-28T20:00:40.503Z,100849.23
2019-02-28T20:03:13.935Z,100839.06
2019-02-28T20:05:47.213Z,100827.97
2019-02-28T20:08:20.545Z,100828.94
2019-02-28T20:10:53.894Z,100832.88
2019-02-28T20:13:27.198Z,100826.38
2019-02-28T20:16:00.484Z,100828.17
2019-02-28T20:18:33.797Z,100830.45
2019-02-28T20:21:07.336Z,100836.59
2019-02-28T20:23:40.668Z,100825.19
2019-02-28T20:26:14.053Z,100828.34
2019-02-28T20:28:47.356Z,100831.96
2019-02-28T20:31:20.914Z,100828.57
2019-02-28T20:33:54.243Z,100821.59
2019-02-28T20:36:27.559Z,100827.37
2019-02-28T20:39:00.892Z,100820.98
2019-02-28T20:41:34.192Z,100817.88
2019-02-28T20:44:07.583Z,100826.02
2019-02-28T20:46:40.882Z,100819.95
2019-02-28T20:49:14.341Z,100818.31
2019-02-28T20:51:54.805Z,100816.20
2019-02-28T20:54:22.694Z,100817.11
2019-02-28T20:56:55.981Z,100815.75
2019-02-28T20:59:29.274Z,100817.95
2019-02-28T21:02:02.584Z,100807.17
2019-02-28T21:04:36.357Z,100806.22
2019-02-28T21:07:09.798Z,100801.44
2019-02-28T21:09:45.154Z,100797.53
2019-02-28T21:12:18.332Z,100791.47
2019-02-28T21:14:51.648Z,100792.82
2019-02-28T21:17:29.375Z,100795.41
2019-02-28T21:20:00.091Z,100798.15
2019-02-28T21:22:33.442Z,100796.77
2019-02-28T21:25:09.791Z,100795.45
2019-02-28T21:27:43.099Z,100800.64
2019-02-28T21:30:19.577Z,100789.79
2019-02-28T21:32:52.892Z,100792.45
2019-02-28T21:35:26.529Z,100787.53
2019-02-28T21:38:00.092Z,100781.83
2019-02-28T21:40:33.487Z,100782.37
2019-02-28T21:43:06.777Z,100780.63
2019-02-28T21:45:40.090Z,100780.22
2019-02-28T21:48:13.457Z,100776.64
2019-02-28T21:50:46.738Z,100777.52
2019-02-28T21:53:20.037Z,100768.28
2019-02-28T21:55:53.344Z,100768.80
2019-02-28T21:58:26.821Z,100770.66
2019-02-28T22:01:00.203Z,100767.99
2019-02-28T22:03:33.508Z,100768.43
2019-02-28T22:06:06.869Z,100770.69
2019-02-28T22:08:40.193Z,100762.84
2019-02-28T22:11:13.597Z,100747.18
2019-02-28T22:13:46.933Z,100756.48
2019-02-28T22:16:20.184Z,100745.16
2019-02-28T22:18:53.473Z,100751.30
2019-02-28T22:21:26.751Z,100752.28
2019-02-28T22:24:01.707Z,100752.71
2019-02-28T22:26:34.996Z,100753.99
2019-02-28T22:29:08.285Z,100754.91
2019-02-28T22:31:46.154Z,100753.08
2019-02-28T22:34:24.039Z,100748.13
2019-02-28T22:36:57.337Z,100742.77
2019-02-28T22:39:30.651Z,100739.36
2019-02-28T22:42:03.953Z,100737.95
2019-02-28T22:44:37.238Z,100729.19
2019-02-28T22:47:10.524Z,100725.28
2019-02-28T22:49:43.835Z,100720.02
2019-02-28T22:52:17.110Z,100720.86
2019-02-28T22:54:50.406Z,100719.59
2019-02-28T22:57:23.703Z,100721.81
2019-02-28T22:59:56.993Z,100718.63
2019-02-28T23:02:30.941Z,100719.00
2019-02-28T23:05:05.388Z,100722.94
2019-02-28T23:07:38.677Z,100723.60
2019-02-28T23:10:11.982Z,100722.23
2019-02-28T23:12:45.253Z,100723.63
2019-02-28T23:15:18.558Z,100719.23
2019-02-28T23:17:51.836Z,100712.59
2019-02-28T23:20:25.130Z,100712.75
2019-02-28T23:22:58.432Z,100704.98
2019-02-28T23:25:31.712Z,100701.98
2019-02-28T23:28:13.355Z,100702.84
2019-02-28T23:31:10.884Z,100696.81
2019-02-28T23:33:44.156Z,100693.72
2019-02-28T23:36:17.449Z,100690.20
2019-02-28T23:38:50.913Z,100692.41
2019-02-28T23:41:24.204Z,100689.79
2019-02-28T23:43:57.483Z,100683.75
2019-02-28T23:46:30.786Z,100677.69
2019-02-28T23:49:04.080Z,100684.66
2019-02-28T23:51:37.389Z,100678.11
2019-02-28T23:54:10.884Z,100670.66
2019-02-28T23:56:44.232Z,100673.67
2019-02-28T23:59:17.565Z,100665.81
